x

San Francisco - 18nm West Of San Francisco, Ca (46026) Wave Buoy

11:50pm - Tue 21st Oct 2014 All times are PDT. -7 hours from GMT.

  • Sig Wave height 7.9ft
  • Swell Direction
  • Peak Period 14s
  • Average Period 8s
  • Wind
    13mph, 18mph gusts
  • Sea Temp 61°f
  • Air Temp 61°f
  • Sea Pressure 1017.8mb
  • San Francisco - 18nm West Of San Francisco, Ca
  • San Francisco - 18nm West Of San Francisco, Ca

More Historic Weather Station data

Upgrade to MSW Pro to gain access to the past 30 days of data for over 8000 Wavebouys and Weather Stations around the globe.

Join Pro

Comparision Forecast

View Surf forecast
   
Tue 10/21 11:50pm 8ft 14s 8s 13 18 mph 1017.8mb 61f 61f
10:50pm 8ft 11s 8s 13 18 mph 1017.7mb 61f 61f
9:50pm 10.5ft 14s 9s 13 18 mph 1017.7mb 61f 61f
8:50pm 11ft 14s 9s 16 18 mph 1017.2mb 61f 61f
7:50pm 9ft 14s 9s 16 18 mph 1017.5mb 61f 61f
6:50pm 9.5ft 14s 9s 16 20 mph 1017.3mb 61f 61f
5:50pm 10.5ft 14s 9s 16 20 mph 1017.6mb 61f 62f
4:50pm 11.5ft 15s 9s 16 20 mph 1017.7mb 61f 62f
3:50pm 10.5ft 14s 10s 16 20 mph 1018.2mb 61f 61f
2:50pm 11ft 15s 10s 16 20 mph 1018.1mb 61f 61f
1:50pm 11.5ft 14s 10s 13 18 mph 1018.5mb 61f 60f
12:50pm 11ft 15s 10s 11 16 mph 1019.2mb 61f 60f
11:50am 10.5ft 15s 10s 9 13 mph 1019.8mb 61f 60f
10:50am 11.5ft 15s 11s 7 11 mph 1019.9mb 61f 59f
9:50am 10ft 14s 10s 7 9 mph 1019.8mb 61f 60f
8:50am 10ft 12s 10s 7 9 mph 1020.1mb 61f 59f
7:50am 12ft 16s 11s 7 9 mph 1019.6mb 61f 60f
6:50am 11ft 13s 10s 7 11 mph 1019mb 61f 60f
5:50am 10ft 16s 10s 7 9 mph 1018.9mb 61f 60f
4:50am 10.5ft 16s 10s 4 7 mph 1018.8mb 61f 60f
3:50am 11.5ft 16s 10s 2 4 mph 1018.9mb 61f 60f
2:50am 11.5ft 16s 10s 2 4 mph 1019.1mb 61f 61f
1:50am  -   -   -  4 7 mph 1018.6mb 61f 61f
12:50am 10ft 16s 10s 4 7 mph 1018.5mb 61f 61f
Mon 10/20 11:50pm 10ft 16s 10s 4 9 mph 1018.4mb 61f 61f
10:50pm 11ft 16s 10s 7 11 mph 1018mb 61f 62f
9:50pm 9.5ft 16s 9s 9 13 mph 1017.2mb 61f 62f
8:50pm 10ft 15s 10s 9 13 mph 1016.4mb 61f 62f
7:50pm 11ft 15s 11s 11 16 mph 1016.5mb 62f 63f
6:50pm 12ft 16s 12s 9 13 mph 1016mb 62f 63f
5:50pm 10.5ft 15s 11s 7 11 mph 1015.6mb 62f 63f
4:50pm 10.5ft 15s 11s 9 11 mph 1015.4mb 62f 62f
3:50pm 10ft 14s 11s 9 11 mph 1015.6mb 62f 63f
2:50pm 9.5ft 12s 11s 7 9 mph 1015.4mb 62f 62f
1:50pm 8.5ft 16s 11s 4 7 mph 1015.4mb 62f 62f
12:50pm 10ft 14s 11s 4
mph
1015.6mb 61f 61f
11:50am 8ft 16s 10s 2 4 mph 1015.5mb 61f 61f
10:50am 8ft 17s 10s 2 4 mph 1015.5mb 61f 61f
9:50am 7ft 17s 9s 4 7 mph 1015.2mb 61f 60f
8:50am 7ft 17s 9s 7 9 mph 1014.7mb 61f 60f
7:50am 7ft 17s 9s 11 16 mph 1013.3mb 61f 62f
6:50am 6ft 17s 9s 13 16 mph 1012.8mb 61f 61f
5:50am 6ft 17s 9s 11 13 mph 1012.8mb 61f 62f
4:50am 6ft 19s 10s 11 13 mph 1012.8mb 61f 62f
3:50am 6ft 11s 9s 9 11 mph 1012.9mb 61f 62f
2:50am 5ft 19s 9s 7 9 mph 1013.4mb 61f 62f
1:50am 5.5ft 10s 9s 7
mph
1013.4mb 61f 62f
12:50am 5ft 19s 9s 7 9 mph 1013.3mb 61f 62f
Sun 10/19 11:50pm 4.5ft 11s 8s 9 11 mph 1013.1mb 62f 62f
10:50pm 4.5ft 11s 9s 7
mph
1013mb 62f 62f
8:50pm 3.5ft 10s 8s 4 7 mph 1012.6mb 62f 62f
7:50pm 4ft 11s 8s 4
mph
1012.5mb 62f 61f
6:50pm 4ft 12s 8s 2
mph
1012mb 62f 62f
5:50pm 4.5ft 11s 8s 2 4 mph 1012.1mb 63f 62f
4:50pm 5ft 12s 8s 2 4 mph 1012.2mb 62f 62f
3:50pm 5ft 11s 8s 4 7 mph 1012.5mb 62f 61f
2:50pm 5ft 9s 8s 4 7 mph 1012.9mb 62f 61f
1:50pm 5ft 9s 8s 2 4 mph 1013.3mb 62f 62f
12:50pm 5ft 11s 8s 2 4 mph 1013.9mb 62f 61f
11:50am 5.5ft 11s 8s 4 7 mph 1014.1mb 61f 60f
10:50am 5.5ft 9s 8s 4 7 mph 1013.9mb 61f 58f
9:50am 5.5ft 11s 8s  -  2 mph 1013.8mb 61f 58f
8:50am 5.5ft 10s 8s 2
mph
1013.6mb 61f 59f
7:50am 5ft 11s 8s 2 4 mph 1013mb 61f 58f
6:50am 5.5ft 11s 8s 4 7 mph 1013mb 61f 58f
5:50am 5ft 11s 8s 7 9 mph 1012.6mb 61f 58f
4:50am 5.5ft 10s 8s 4 9 mph 1012.3mb 61f 58f
3:50am 5.5ft 11s 8s 2 4 mph 1012.3mb 61f 58f
2:50am 5ft 11s 8s 4
mph
1013.1mb 61f 59f
1:50am 5.5ft 11s 8s 4
mph
1013mb 61f 59f
12:50am 6ft 11s 8s 7
mph
1013mb 61f 58f
Sat 10/18 11:50pm 5.5ft 12s 8s 4
mph
1013.1mb 61f 59f
10:50pm 5.5ft 11s 8s 7
mph
1013.1mb 61f 59f
9:50pm 6ft 12s 8s 7 9 mph 1013.2mb 61f 60f
8:50pm 6ft 11s 8s 7 9 mph 1013mb 62f 62f
7:50pm 6ft 10s 8s 7 9 mph 1013.2mb 62f 62f
6:50pm 6ft 10s 8s 4 7 mph 1012.9mb 62f 62f
5:50pm 6ft 10s 8s 9 11 mph 1012.8mb 62f 63f
4:50pm 6.5ft 10s 8s 7 9 mph 1013mb 62f 63f
3:50pm 7.5ft 11s 9s 9 11 mph 1013.5mb 62f 63f
2:50pm 7ft 11s 9s 7 9 mph 1013.9mb 62f 63f
1:50pm 7ft 11s 9s 7 9 mph 1014.2mb 62f 64f
12:50pm 7ft 11s 8s 2 7 mph 1014.9mb 62f 65f
11:50am 7.5ft 10s 9s  -  2 mph 1015.3mb 61f 64f
10:50am 6ft 11s 8s 4 7 mph 1015.7mb 61f 62f
9:50am 6ft 11s 8s 7 9 mph 1015.8mb 60f 62f
8:50am 5.5ft 11s 7s 7 11 mph 1015.5mb 60f 62f